Time;durP1;ratioP1;P1;durP2;ratioP2;P2;SDS_P1;SDS_P2;PMS_P1;PMS_P2;Temp;Humidity;BMP_temperature;BMP_pressure;BME280_temperature;BME280_humidity;BME280_pressure;Samples;Min_cycle;Max_cycle;Signal;HPM_P1;HPM_P2
2022/04/24 00:02:12;;;;;;;19.90;10.77;;;6.10;84.90;;;;;;4808267;29;20653;-83
2022/04/24 00:04:38;;;;;;;20.17;9.90;;;6.00;85.10;;;;;;4824676;29;20182;-84
2022/04/24 00:07:07;;;;;;;18.90;11.30;;;6.10;85.40;;;;;;4824836;29;20186;-86
2022/04/24 00:09:34;;;;;;;19.23;11.77;;;6.10;85.60;;;;;;4825120;29;20211;-87
2022/04/24 00:12:00;;;;;;;16.63;11.50;;;6.10;85.70;;;;;;4824989;29;20223;-87
2022/04/24 00:14:27;;;;;;;20.33;12.10;;;6.10;86.00;;;;;;4808748;29;20216;-87
2022/04/24 00:16:52;;;;;;;15.73;11.93;;;6.10;86.10;;;;;;4825105;29;20672;-86
2022/04/24 00:19:19;;;;;;;16.20;11.87;;;6.10;86.30;;;;;;4809898;29;20190;-87
2022/04/24 00:21:45;;;;;;;21.23;12.43;;;6.10;86.30;;;;;;4828242;29;20184;-86
2022/04/24 00:24:10;;;;;;;16.53;12.10;;;6.00;86.40;;;;;;4827791;29;20234;-86
2022/04/24 00:26:36;;;;;;;23.63;13.63;;;6.10;86.60;;;;;;4811756;29;20616;-88
2022/04/24 00:29:02;;;;;;;16.70;12.73;;;6.00;86.70;;;;;;4811663;29;20186;-88
2022/04/24 00:31:27;;;;;;;21.50;13.00;;;6.00;86.90;;;;;;4827879;29;20542;-86
2022/04/24 00:33:53;;;;;;;20.57;14.30;;;5.90;87.00;;;;;;4827886;29;20619;-86
2022/04/24 00:36:18;;;;;;;22.97;14.77;;;5.80;87.30;;;;;;4811698;29;20234;-88
2022/04/24 00:38:44;;;;;;;26.70;14.23;;;5.80;87.50;;;;;;4811745;29;20230;-88
2022/04/24 00:41:09;;;;;;;24.70;16.03;;;5.80;87.70;;;;;;4811741;29;20189;-87
2022/04/24 00:43:35;;;;;;;22.83;15.53;;;5.80;88.00;;;;;;4827758;29;20202;-87
2022/04/24 00:46:14;;;;;;;28.30;16.60;;;5.80;88.10;;;;;;4811596;29;20189;-86
2022/04/24 00:48:40;;;;;;;24.83;16.10;;;5.90;88.40;;;;;;4811155;29;20182;-86
2022/04/24 00:51:10;;;;;;;26.83;16.33;;;5.90;88.50;;;;;;4827484;29;20186;-87
2022/04/24 00:53:36;;;;;;;30.13;16.77;;;5.90;88.60;;;;;;4827520;29;20265;-88
2022/04/24 00:56:03;;;;;;;23.57;15.77;;;5.90;88.70;;;;;;4811606;29;20278;-87
2022/04/24 00:58:29;;;;;;;26.90;17.73;;;5.90;88.90;;;;;;4811293;29;20660;-88
2022/04/24 01:00:55;;;;;;;28.57;18.20;;;5.90;88.90;;;;;;4827938;29;20266;-87
2022/04/24 01:03:21;;;;;;;25.00;18.50;;;5.90;89.10;;;;;;4811373;29;20204;-88
2022/04/24 01:05:47;;;;;;;29.80;19.00;;;5.90;89.20;;;;;;4810964;29;20193;-87
2022/04/24 01:08:12;;;;;;;29.30;17.47;;;6.00;89.30;;;;;;4811146;29;20284;-88
2022/04/24 01:10:39;;;;;;;32.93;19.57;;;5.90;89.30;;;;;;4811152;29;20275;-87
2022/04/24 01:13:05;;;;;;;31.60;18.80;;;5.90;89.30;;;;;;4810743;29;20213;-87
2022/04/24 01:15:32;;;;;;;32.50;17.20;;;5.80;89.50;;;;;;4827265;29;20184;-87
2022/04/24 01:17:58;;;;;;;28.33;16.53;;;5.90;89.50;;;;;;4810842;29;20216;-88
2022/04/24 01:20:24;;;;;;;25.50;17.37;;;5.90;89.60;;;;;;4827249;29;20241;-87
2022/04/24 01:22:50;;;;;;;25.37;15.30;;;5.80;89.50;;;;;;4827525;29;20203;-86
2022/04/24 01:25:15;;;;;;;32.30;17.53;;;5.80;89.60;;;;;;4810904;29;20688;-87
2022/04/24 01:27:41;;;;;;;22.30;15.60;;;5.90;89.60;;;;;;4827306;29;20191;-87
2022/04/24 01:30:07;;;;;;;21.07;14.67;;;5.90;89.60;;;;;;4826853;29;20610;-87
2022/04/24 01:32:34;;;;;;;21.67;13.30;;;5.80;89.50;;;;;;4810559;29;20304;-87
2022/04/24 01:35:02;;;;;;;20.80;12.10;;;5.80;89.50;;;;;;4810745;29;20268;-87
2022/04/24 01:37:28;;;;;;;20.00;13.60;;;5.90;89.50;;;;;;4826855;29;20220;-87
2022/04/24 01:39:55;;;;;;;21.17;13.27;;;5.80;89.50;;;;;;4827278;29;20558;-87
2022/04/24 01:42:21;;;;;;;21.37;12.93;;;5.80;89.40;;;;;;4827828;29;20180;-87
2022/04/24 01:44:47;;;;;;;17.50;12.57;;;5.80;89.30;;;;;;4811186;29;20194;-88
2022/04/24 01:47:12;;;;;;;23.63;12.93;;;5.80;89.20;;;;;;4826921;29;20213;-86
2022/04/24 01:49:38;;;;;;;14.87;11.13;;;5.80;89.20;;;;;;4810456;29;20193;-87
2022/04/24 01:52:05;;;;;;;19.83;11.37;;;5.80;89.20;;;;;;4810135;29;20683;-87
2022/04/24 01:54:31;;;;;;;16.63;9.93;;;5.80;88.90;;;;;;4810132;29;20254;-87
2022/04/24 01:56:56;;;;;;;17.63;10.53;;;5.80;88.80;;;;;;4809746;29;20212;-88
2022/04/24 01:59:22;;;;;;;12.57;9.30;;;5.80;88.60;;;;;;4809724;29;20562;-88
2022/04/24 02:01:47;;;;;;;12.57;8.87;;;5.80;88.50;;;;;;4827266;29;20229;-88
2022/04/24 02:04:13;;;;;;;14.10;9.93;;;5.80;88.30;;;;;;4810457;29;20299;-87
2022/04/24 02:06:39;;;;;;;11.47;8.33;;;5.80;88.10;;;;;;4827266;29;20683;-88
2022/04/24 02:09:04;;;;;;;11.47;8.40;;;5.80;88.00;;;;;;4827249;29;20192;-87
2022/04/24 02:11:30;;;;;;;11.83;7.33;;;5.80;87.80;;;;;;4810677;29;20186;-86
2022/04/24 02:13:55;;;;;;;13.40;7.60;;;5.80;87.50;;;;;;4826869;29;20677;-87
2022/04/24 02:16:21;;;;;;;12.03;6.50;;;5.90;87.10;;;;;;4810298;29;20311;-87
2022/04/24 02:18:46;;;;;;;11.27;6.50;;;6.00;86.50;;;;;;4826888;29;20241;-88
2022/04/24 02:21:13;;;;;;;14.33;6.70;;;6.00;86.30;;;;;;4809959;29;20179;-85
2022/04/24 02:23:39;;;;;;;9.87;6.30;;;6.00;86.00;;;;;;4827001;29;20570;-87
2022/04/24 02:26:04;;;;;;;10.77;6.67;;;5.90;86.00;;;;;;4810323;29;20178;-86
2022/04/24 02:28:30;;;;;;;9.07;6.10;;;5.90;86.00;;;;;;4810204;29;20192;-87
2022/04/24 02:30:55;;;;;;;11.47;6.17;;;5.80;86.00;;;;;;4810251;29;20193;-87
2022/04/24 02:33:21;;;;;;;8.43;5.40;;;5.80;85.80;;;;;;4810024;29;20688;-87
2022/04/24 02:35:46;;;;;;;9.03;5.30;;;5.80;85.60;;;;;;4826469;29;20206;-88
2022/04/24 02:38:12;;;;;;;14.60;5.40;;;5.80;85.30;;;;;;4826425;29;20291;-88
2022/04/24 02:40:38;;;;;;;10.13;5.47;;;5.80;85.40;;;;;;4809777;29;20241;-88
2022/04/24 02:43:04;;;;;;;8.17;5.53;;;5.70;85.50;;;;;;4809580;29;20205;-88
2022/04/24 02:45:29;;;;;;;12.47;5.87;;;5.70;85.70;;;;;;4810155;29;20206;-87
2022/04/24 02:47:55;;;;;;;10.10;5.20;;;5.60;85.70;;;;;;4810049;29;20209;-87
2022/04/24 02:50:21;;;;;;;8.10;4.90;;;5.50;85.90;;;;;;4826286;29;20252;-88
2022/04/24 02:52:50;;;;;;;7.77;5.00;;;5.60;85.60;;;;;;4809414;29;20203;-88
2022/04/24 02:55:16;;;;;;;7.00;4.77;;;5.70;85.50;;;;;;4826221;29;20176;-87
2022/04/24 02:57:43;;;;;;;8.87;5.27;;;5.60;85.60;;;;;;4809397;29;20219;-87
2022/04/24 03:00:10;;;;;;;10.20;4.60;;;5.50;85.70;;;;;;4826126;29;20180;-88
2022/04/24 03:02:41;;;;;;;6.97;5.40;;;5.40;85.80;;;;;;4826020;29;20569;-87
2022/04/24 03:05:07;;;;;;;6.83;5.43;;;5.30;85.90;;;;;;4825785;29;20176;-87
2022/04/24 03:07:33;;;;;;;10.27;4.87;;;5.30;86.10;;;;;;4809454;29;20195;-86
2022/04/24 03:09:58;;;;;;;10.87;5.47;;;5.40;86.20;;;;;;4809643;29;20180;-88
2022/04/24 03:12:24;;;;;;;8.80;4.90;;;5.30;86.20;;;;;;4809144;29;20631;-88
2022/04/24 03:14:49;;;;;;;8.93;5.00;;;5.30;86.40;;;;;;4809366;29;20190;-88
2022/04/24 03:17:15;;;;;;;7.70;5.10;;;5.20;86.60;;;;;;4809378;29;20204;-87
2022/04/24 03:19:40;;;;;;;9.33;5.40;;;5.20;86.80;;;;;;4809063;29;20724;-86
2022/04/24 03:22:06;;;;;;;11.83;5.63;;;5.20;87.10;;;;;;4808980;29;20190;-87
2022/04/24 03:24:32;;;;;;;11.67;5.67;;;5.20;87.30;;;;;;4808946;29;20203;-87
2022/04/24 03:26:57;;;;;;;14.20;6.33;;;5.10;87.60;;;;;;4809718;29;20699;-89
2022/04/24 03:29:24;;;;;;;12.70;5.97;;;5.10;88.00;;;;;;4825596;29;20200;-87
2022/04/24 03:31:49;;;;;;;14.23;6.73;;;5.10;88.20;;;;;;4809230;29;20216;-88
2022/04/24 03:34:15;;;;;;;11.37;6.80;;;5.10;88.50;;;;;;4825505;29;20200;-87
2022/04/24 03:36:40;;;;;;;9.87;6.63;;;5.00;88.70;;;;;;4825283;29;20287;-87
2022/04/24 03:39:06;;;;;;;12.87;7.33;;;4.90;89.00;;;;;;4809107;29;20180;-87
2022/04/24 03:41:32;;;;;;;12.10;7.27;;;4.90;89.10;;;;;;4808920;29;20180;-88
2022/04/24 03:43:57;;;;;;;14.87;7.77;;;4.80;89.20;;;;;;4825251;29;20699;-88
2022/04/24 03:46:23;;;;;;;15.33;8.73;;;4.70;89.50;;;;;;4825346;29;20188;-88
2022/04/24 03:48:48;;;;;;;18.17;8.80;;;4.70;89.70;;;;;;4808839;29;20192;-88
2022/04/24 03:51:14;;;;;;;19.50;9.53;;;4.70;90.00;;;;;;4825204;29;20629;-87
2022/04/24 03:53:39;;;;;;;19.53;11.07;;;4.80;90.60;;;;;;4825634;29;20222;-87
2022/04/24 03:56:05;;;;;;;14.90;9.37;;;4.90;90.70;;;;;;4828752;29;20184;-88
2022/04/24 03:58:30;;;;;;;16.37;10.23;;;4.90;90.80;;;;;;4812770;29;20212;-88
2022/04/24 04:00:56;;;;;;;21.63;11.70;;;4.80;90.80;;;;;;4829708;29;20640;-87
2022/04/24 04:03:22;;;;;;;24.63;13.13;;;4.80;90.90;;;;;;4812899;29;20238;-87
2022/04/24 04:05:47;;;;;;;17.93;12.33;;;4.80;90.90;;;;;;4813222;29;20264;-88
2022/04/24 04:08:13;;;;;;;25.53;12.40;;;4.80;91.00;;;;;;4813167;29;20195;-88
2022/04/24 04:10:39;;;;;;;22.87;13.30;;;4.70;91.10;;;;;;4812844;29;20271;-87
2022/04/24 04:13:08;;;;;;;17.80;12.70;;;4.70;91.20;;;;;;4829783;29;20200;-87
2022/04/24 04:15:35;;;;;;;24.13;13.27;;;4.70;91.20;;;;;;4813066;29;20188;-87
2022/04/24 04:18:00;;;;;;;22.17;13.73;;;4.70;91.20;;;;;;4812778;29;20683;-87
2022/04/24 04:20:26;;;;;;;20.10;13.00;;;4.60;91.20;;;;;;4829183;29;20185;-88
2022/04/24 04:22:51;;;;;;;23.53;13.97;;;4.70;91.40;;;;;;4829034;29;20271;-87
2022/04/24 04:25:21;;;;;;;23.27;14.17;;;4.70;91.40;;;;;;4828993;29;20186;-87
2022/04/24 04:27:47;;;;;;;25.37;15.13;;;4.80;91.50;;;;;;4828477;29;20176;-87
2022/04/24 04:30:13;;;;;;;25.53;14.57;;;4.90;91.50;;;;;;4812354;29;20190;-88
2022/04/24 04:32:38;;;;;;;25.60;15.07;;;5.00;91.50;;;;;;4812167;29;20214;-88
2022/04/24 04:35:05;;;;;;;26.83;15.17;;;5.00;91.40;;;;;;4811973;29;20191;-88
2022/04/24 04:37:32;;;;;;;28.47;16.37;;;5.00;91.40;;;;;;4828521;29;20195;-87
2022/04/24 04:39:58;;;;;;;22.10;14.67;;;5.20;91.40;;;;;;4812417;29;20191;-88
2022/04/24 04:42:23;;;;;;;25.27;15.40;;;5.20;91.30;;;;;;4828577;29;20176;-87
2022/04/24 04:44:49;;;;;;;28.67;16.30;;;5.30;91.30;;;;;;4812141;29;20212;-88
2022/04/24 04:47:14;;;;;;;28.40;15.40;;;5.30;91.20;;;;;;4828370;29;20225;-88
2022/04/24 04:49:40;;;;;;;27.97;16.07;;;5.40;91.10;;;;;;4828077;29;20181;-87
2022/04/24 04:52:06;;;;;;;24.37;15.13;;;5.50;91.10;;;;;;4811653;29;20185;-87
2022/04/24 04:54:31;;;;;;;27.67;15.10;;;5.60;91.00;;;;;;4811715;29;20215;-88
2022/04/24 04:56:57;;;;;;;30.33;15.87;;;5.60;90.80;;;;;;4828043;29;20208;-89
2022/04/24 04:59:22;;;;;;;22.83;15.03;;;5.70;90.70;;;;;;4811543;29;20709;-87
2022/04/24 05:01:48;;;;;;;22.00;13.63;;;5.70;90.50;;;;;;4827845;29;20185;-89
2022/04/24 05:04:13;;;;;;;21.87;13.90;;;5.80;90.40;;;;;;4827693;29;20197;-88
2022/04/24 05:06:39;;;;;;;17.87;12.07;;;5.80;90.20;;;;;;4814400;29;20189;-88
2022/04/24 05:09:05;;;;;;;26.83;13.00;;;5.90;90.00;;;;;;4811523;29;20180;-87
2022/04/24 05:11:31;;;;;;;18.17;12.10;;;6.00;89.70;;;;;;4827725;29;20186;-87
2022/04/24 05:13:57;;;;;;;20.50;12.47;;;6.10;89.50;;;;;;4827272;29;20227;-87
2022/04/24 05:16:22;;;;;;;17.27;10.73;;;6.20;89.10;;;;;;4812979;29;20555;-87
2022/04/24 05:18:48;;;;;;;14.90;10.63;;;6.30;88.90;;;;;;4829510;29;20194;-89
2022/04/24 05:21:13;;;;;;;15.20;9.63;;;6.30;88.70;;;;;;4829351;29;20236;-88
2022/04/24 05:23:42;;;;;;;17.63;9.57;;;6.40;88.40;;;;;;4812468;29;20205;-88
2022/04/24 05:26:07;;;;;;;12.83;7.40;;;6.40;88.00;;;;;;4818669;29;20177;-88
2022/04/24 05:28:33;;;;;;;10.67;8.10;;;6.50;87.50;;;;;;4812214;29;20186;-88
2022/04/24 05:30:58;;;;;;;12.63;8.17;;;6.60;87.30;;;;;;4828568;29;20197;-88
2022/04/24 05:33:24;;;;;;;15.13;7.67;;;6.70;87.30;;;;;;4812001;29;20210;-88
2022/04/24 05:35:50;;;;;;;11.90;6.90;;;6.70;86.50;;;;;;4811276;29;20186;-90
2022/04/24 05:38:15;;;;;;;12.67;7.13;;;6.80;86.40;;;;;;4827704;29;20202;-88
2022/04/24 05:40:41;;;;;;;10.23;7.07;;;6.90;86.00;;;;;;4811843;29;20183;-88
2022/04/24 05:43:06;;;;;;;10.33;6.33;;;6.90;85.70;;;;;;4812062;29;20206;-89
2022/04/24 05:45:32;;;;;;;13.43;6.03;;;7.00;85.10;;;;;;4827514;29;20652;-87
2022/04/24 05:47:58;;;;;;;12.50;5.93;;;7.10;84.70;;;;;;4810831;29;20190;-89
2022/04/24 05:50:24;;;;;;;8.83;5.67;;;7.10;84.20;;;;;;4811160;29;20182;-88
2022/04/24 05:52:53;;;;;;;7.20;5.23;;;7.30;84.20;;;;;;4810718;29;20217;-88
2022/04/24 05:55:18;;;;;;;8.83;6.03;;;7.30;83.70;;;;;;4811017;29;20178;-87
2022/04/24 05:57:44;;;;;;;9.90;4.93;;;7.40;83.80;;;;;;4810981;29;20581;-88
2022/04/24 06:00:12;;;;;;;8.07;5.17;;;7.50;83.00;;;;;;4810753;29;20184;-87
2022/04/24 06:02:39;;;;;;;4.87;3.73;;;7.60;82.80;;;;;;4811048;29;20241;-87
2022/04/24 06:05:05;;;;;;;7.27;4.20;;;7.60;82.00;;;;;;4810699;29;20264;-86
2022/04/24 06:07:31;;;;;;;6.30;4.50;;;7.60;81.60;;;;;;4811190;29;20196;-87
2022/04/24 06:09:56;;;;;;;7.73;4.97;;;7.70;81.40;;;;;;4827621;29;20187;-86
2022/04/24 06:12:22;;;;;;;6.80;4.27;;;7.80;81.50;;;;;;4811178;29;20265;-87
2022/04/24 06:14:47;;;;;;;6.10;4.57;;;7.90;80.90;;;;;;4810806;29;20215;-88
2022/04/24 06:17:13;;;;;;;5.90;3.90;;;8.00;81.10;;;;;;4810694;29;20210;-87
2022/04/24 06:19:39;;;;;;;4.73;4.20;;;8.10;80.90;;;;;;4827460;29;20549;-86
2022/04/24 06:22:05;;;;;;;9.93;3.90;;;8.00;79.50;;;;;;4810699;29;20183;-87
2022/04/24 06:24:30;;;;;;;7.00;4.00;;;8.10;80.00;;;;;;4826793;29;20276;-88
2022/04/24 06:26:56;;;;;;;8.80;3.67;;;8.20;79.10;;;;;;4827380;29;20260;-87
2022/04/24 06:29:21;;;;;;;5.57;4.10;;;8.30;79.70;;;;;;4810390;29;20655;-87
2022/04/24 06:31:47;;;;;;;4.27;3.23;;;8.30;78.80;;;;;;4809427;29;20184;-84
2022/04/24 06:34:12;;;;;;;9.17;4.10;;;8.40;79.00;;;;;;4827263;29;20550;-86
2022/04/24 06:36:38;;;;;;;3.43;3.13;;;8.50;78.20;;;;;;4826706;29;20210;-87
2022/04/24 06:39:04;;;;;;;5.77;3.33;;;8.50;77.60;;;;;;4809985;29;20241;-87
2022/04/24 06:41:29;;;;;;;9.03;4.27;;;8.60;77.40;;;;;;4826442;29;20188;-87
2022/04/24 06:43:55;;;;;;;6.60;4.40;;;8.60;77.40;;;;;;4826988;29;20204;-88
2022/04/24 06:46:20;;;;;;;4.23;3.57;;;8.70;77.60;;;;;;4810345;29;20218;-88
2022/04/24 06:48:46;;;;;;;7.13;4.17;;;8.70;76.90;;;;;;4827172;29;20188;-86
2022/04/24 06:51:12;;;;;;;3.27;2.97;;;8.80;76.90;;;;;;4826918;29;20187;-88
2022/04/24 06:53:38;;;;;;;5.47;3.70;;;8.80;76.30;;;;;;4810006;29;20223;-86
2022/04/24 06:56:04;;;;;;;2.73;2.30;;;8.90;75.70;;;;;;4809466;29;20279;-88
2022/04/24 06:58:30;;;;;;;6.23;3.27;;;8.90;75.50;;;;;;4809278;29;20257;-87
2022/04/24 07:00:56;;;;;;;7.83;2.97;;;9.00;74.90;;;;;;4825919;29;20241;-87
2022/04/24 07:03:22;;;;;;;5.50;2.90;;;9.00;74.80;;;;;;4808956;29;20204;-86
2022/04/24 07:05:54;;;;;;;3.90;3.20;;;9.00;75.40;;;;;;4809506;29;20552;-87
2022/04/24 07:08:21;;;;;;;4.20;3.10;;;9.10;75.10;;;;;;4809187;29;20180;-86
2022/04/24 07:10:47;;;;;;;5.53;2.80;;;9.10;74.80;;;;;;4809343;29;20215;-86
2022/04/24 07:13:12;;;;;;;3.93;3.53;;;9.10;74.30;;;;;;4825441;29;20204;-86
2022/04/24 07:15:41;;;;;;;3.97;3.53;;;9.30;74.00;;;;;;4825991;29;20194;-87
2022/04/24 07:18:10;;;;;;;5.33;3.53;;;9.30;74.00;;;;;;4809271;29;20598;-88
2022/04/24 07:20:36;;;;;;;4.37;3.33;;;9.30;73.80;;;;;;4809141;29;20566;-86
2022/04/24 07:23:05;;;;;;;5.77;3.50;;;9.50;74.00;;;;;;4809721;29;20204;-86
2022/04/24 07:25:40;;;;;;;10.60;3.43;;;9.50;72.90;;;;;;4809808;29;20184;-86
2022/04/24 07:28:06;;;;;;;5.13;3.67;;;9.80;73.50;;;;;;4809486;29;20591;-86
2022/04/24 07:30:32;;;;;;;5.57;3.53;;;9.80;72.70;;;;;;4812488;29;20279;-87
2022/04/24 07:32:58;;;;;;;5.17;3.47;;;9.80;71.90;;;;;;4829401;29;20280;-87
2022/04/24 07:35:26;;;;;;;6.43;3.90;;;9.90;72.10;;;;;;4829322;29;20187;-87
2022/04/24 07:37:53;;;;;;;4.07;3.60;;;10.00;71.20;;;;;;4812787;29;20566;-88
2022/04/24 07:40:20;;;;;;;4.07;3.30;;;9.90;71.10;;;;;;4812758;29;20287;-87
2022/04/24 07:42:59;;;;;;;4.90;2.37;;;9.90;71.40;;;;;;4828554;29;20200;-86
2022/04/24 07:45:30;;;;;;;3.40;2.07;;;9.90;70.10;;;;;;4812944;29;20270;-87
2022/04/24 07:47:57;;;;;;;3.40;2.40;;;10.00;69.60;;;;;;4812411;29;20180;-87
2022/04/24 07:50:25;;;;;;;3.80;2.70;;;10.00;70.20;;;;;;4829446;29;20271;-86
2022/04/24 07:52:51;;;;;;;4.47;3.23;;;10.20;70.60;;;;;;4825316;29;98532;-87
2022/04/24 07:55:19;;;;;;;9.13;3.07;;;10.20;70.40;;;;;;4813685;29;20241;-87
2022/04/24 07:57:46;;;;;;;6.33;3.60;;;10.30;70.60;;;;;;4830069;29;20663;-86
2022/04/24 08:00:13;;;;;;;4.40;3.13;;;10.40;69.30;;;;;;4817290;29;20184;-87
2022/04/24 08:02:49;;;;;;;3.97;3.20;;;10.40;68.40;;;;;;4829206;29;20282;-86
2022/04/24 08:05:22;;;;;;;6.40;3.80;;;10.50;68.80;;;;;;4812909;29;20651;-86
2022/04/24 08:07:48;;;;;;;5.60;2.90;;;10.60;70.20;;;;;;4813124;29;20215;-89
2022/04/24 08:10:14;;;;;;;4.60;3.40;;;10.60;68.60;;;;;;4814031;29;20187;-87
2022/04/24 08:12:39;;;;;;;4.00;2.87;;;10.60;68.20;;;;;;4830403;29;20221;-87
2022/04/24 08:15:05;;;;;;;3.97;2.73;;;10.70;67.30;;;;;;4813890;29;20602;-87
2022/04/24 08:17:31;;;;;;;4.43;3.00;;;10.70;67.40;;;;;;4829473;29;20203;-86
2022/04/24 08:19:57;;;;;;;6.57;2.87;;;10.60;67.60;;;;;;4829790;29;20180;-88
2022/04/24 08:22:22;;;;;;;5.53;3.13;;;10.70;68.50;;;;;;4829009;29;20203;-86
2022/04/24 08:24:48;;;;;;;3.07;2.37;;;10.70;67.30;;;;;;4829178;29;20183;-86
2022/04/24 08:27:13;;;;;;;7.73;2.83;;;10.80;66.20;;;;;;4829459;29;20612;-88
2022/04/24 08:29:39;;;;;;;5.67;2.30;;;10.90;66.00;;;;;;4812048;29;20247;-90
2022/04/24 08:32:04;;;;;;;7.97;2.90;;;11.10;65.90;;;;;;4811285;29;20187;-88
2022/04/24 08:34:30;;;;;;;2.30;1.60;;;11.20;65.80;;;;;;4810944;29;20582;-89
2022/04/24 08:36:55;;;;;;;5.40;2.83;;;11.30;65.20;;;;;;4811203;29;20666;-89
2022/04/24 08:39:21;;;;;;;4.00;2.47;;;11.10;64.80;;;;;;4810630;29;20237;-90
2022/04/24 08:41:47;;;;;;;2.97;2.63;;;10.90;65.90;;;;;;4810939;29;20172;-89
2022/04/24 08:44:13;;;;;;;3.80;2.80;;;10.80;66.60;;;;;;4813218;29;20260;-86
2022/04/24 08:46:39;;;;;;;7.17;3.00;;;10.90;66.10;;;;;;4837218;29;20222;-86
2022/04/24 08:49:05;;;;;;;2.93;2.70;;;11.30;67.10;;;;;;4837103;29;20172;-85
2022/04/24 08:51:33;;;;;;;4.47;2.10;;;11.60;66.40;;;;;;4819076;29;20199;-86
2022/04/24 08:53:58;;;;;;;3.70;2.80;;;11.40;65.00;;;;;;4836189;29;20234;-86
2022/04/24 08:56:24;;;;;;;3.93;3.00;;;11.30;64.70;;;;;;4827685;29;20187;-86
2022/04/24 08:58:49;;;;;;;3.17;2.13;;;11.20;63.10;;;;;;4827700;29;20216;-86
2022/04/24 09:01:15;;;;;;;4.67;3.23;;;11.20;63.20;;;;;;4827599;29;20180;-87
2022/04/24 09:03:40;;;;;;;3.13;2.80;;;10.90;65.20;;;;;;4827298;29;20243;-87
2022/04/24 09:06:06;;;;;;;4.87;2.47;;;11.10;66.00;;;;;;4811324;29;20743;-85
2022/04/24 09:08:35;;;;;;;5.63;3.43;;;11.50;63.60;;;;;;4828356;29;20254;-86
2022/04/24 09:11:02;;;;;;;6.60;3.40;;;11.60;65.80;;;;;;4828709;29;20176;-87
2022/04/24 09:16:34;;;;;;;6.40;2.90;;;11.90;63.60;;;;;;4828643;29;20646;-88
2022/04/24 09:19:00;;;;;;;5.97;2.80;;;11.90;64.10;;;;;;4827628;29;20250;-88
2022/04/24 09:21:25;;;;;;;5.30;2.93;;;11.90;64.00;;;;;;4828018;29;20660;-86
2022/04/24 09:23:51;;;;;;;2.97;2.67;;;12.00;65.30;;;;;;4828258;29;20196;-88
2022/04/24 09:26:17;;;;;;;5.97;3.47;;;11.80;61.60;;;;;;4828651;29;20172;-87
2022/04/24 09:28:43;;;;;;;3.40;2.47;;;11.30;62.20;;;;;;4827761;29;20264;-89
2022/04/24 09:31:09;;;;;;;2.37;2.03;;;11.40;62.60;;;;;;4827586;29;20188;-87
2022/04/24 09:33:37;;;;;;;3.73;2.50;;;11.80;63.90;;;;;;4811322;29;20215;-87
2022/04/24 09:36:02;;;;;;;2.73;2.47;;;12.00;63.50;;;;;;4810778;29;20203;-87
2022/04/24 09:38:28;;;;;;;5.30;2.87;;;11.80;63.00;;;;;;4827602;29;20207;-88
2022/04/24 09:40:54;;;;;;;3.53;2.97;;;11.80;62.80;;;;;;4811157;29;20189;-87
2022/04/24 09:43:20;;;;;;;3.43;2.30;;;12.00;63.30;;;;;;4827328;29;20204;-87
2022/04/24 09:45:48;;;;;;;2.40;2.20;;;12.10;61.20;;;;;;4827686;29;20180;-87
2022/04/24 09:48:15;;;;;;;4.60;2.50;;;12.20;62.30;;;;;;4811455;29;20252;-86
2022/04/24 09:50:41;;;;;;;5.20;2.93;;;12.30;62.70;;;;;;4811387;29;20659;-87
2022/04/24 09:53:10;;;;;;;3.47;2.83;;;12.30;62.30;;;;;;4826130;29;20295;-85
2022/04/24 09:55:38;;;;;;;3.00;2.70;;;12.30;63.50;;;;;;4827107;29;20176;-87
2022/04/24 09:58:04;;;;;;;1.97;1.87;;;12.30;61.90;;;;;;4826498;29;20229;-87
2022/04/24 10:00:32;;;;;;;3.27;2.50;;;12.40;62.30;;;;;;4826995;29;20169;-85
2022/04/24 10:02:58;;;;;;;4.07;2.83;;;12.40;59.10;;;;;;4813200;29;20200;-87
2022/04/24 10:05:28;;;;;;;4.27;2.20;;;11.70;61.90;;;;;;4826856;29;20183;-86
2022/04/24 10:07:53;;;;;;;4.83;2.77;;;12.20;63.50;;;;;;4810817;29;20195;-85
2022/04/24 10:10:19;;;;;;;3.60;2.60;;;12.30;61.80;;;;;;4809951;29;20635;-86
2022/04/24 10:12:48;;;;;;;5.47;3.00;;;12.40;61.90;;;;;;4814627;29;20208;-87
2022/04/24 10:15:16;;;;;;;2.93;2.20;;;12.50;61.00;;;;;;4826801;29;20183;-88
2022/04/24 10:18:00;;;;;;;4.87;2.50;;;12.80;60.90;;;;;;4826202;29;20244;-88
2022/04/24 10:20:51;;;;;;;3.87;2.60;;;12.80;59.60;;;;;;4821308;29;20255;-87
2022/04/24 10:23:32;;;;;;;3.27;2.57;;;12.80;59.00;;;;;;4826120;29;20196;-89
2022/04/24 10:25:57;;;;;;;3.20;2.40;;;12.90;60.10;;;;;;4809463;29;20191;-89
2022/04/24 10:28:35;;;;;;;3.47;2.70;;;12.80;60.80;;;;;;4809482;29;20184;-85
2022/04/24 10:31:03;;;;;;;2.30;2.10;;;13.10;61.10;;;;;;4825836;29;20199;-88
2022/04/24 10:33:30;;;;;;;4.97;2.93;;;13.10;59.40;;;;;;4809435;29;20656;-89
2022/04/24 10:36:05;;;;;;;4.20;2.53;;;13.40;60.10;;;;;;4825583;29;20215;-88
2022/04/24 10:38:48;;;;;;;3.03;2.20;;;13.20;59.80;;;;;;4825909;29;20207;-87
2022/04/24 10:41:24;;;;;;;3.40;2.80;;;13.10;58.10;;;;;;4826045;29;20251;-88
2022/04/24 10:43:56;;;;;;;3.47;2.50;;;13.10;57.90;;;;;;4809685;29;20743;-88
2022/04/24 10:46:32;;;;;;;4.60;2.70;;;13.20;58.80;;;;;;4826076;29;20220;-89
2022/04/24 10:49:09;;;;;;;4.53;2.50;;;12.80;58.60;;;;;;4825779;29;20533;-87
2022/04/24 10:51:36;;;;;;;9.97;2.37;;;12.60;57.80;;;;;;4809373;29;20732;-87
2022/04/24 10:54:17;;;;;;;6.80;2.10;;;12.80;60.30;;;;;;4826099;29;20224;-87
2022/04/24 10:56:51;;;;;;;3.23;2.47;;;12.80;59.50;;;;;;4826435;29;20528;-87
2022/04/24 10:59:19;;;;;;;5.10;2.67;;;12.40;59.40;;;;;;4809758;29;20179;-86
2022/04/24 11:01:52;;;;;;;2.70;2.20;;;12.70;60.50;;;;;;4826106;29;20187;-86
2022/04/24 11:04:20;;;;;;;2.67;2.33;;;12.60;59.80;;;;;;4809105;29;20208;-86
2022/04/24 11:06:59;;;;;;;2.30;2.10;;;12.40;60.00;;;;;;4826049;29;20187;-86
2022/04/24 11:09:31;;;;;;;2.57;2.37;;;12.60;59.60;;;;;;4826015;29;20180;-87
2022/04/24 11:12:01;;;;;;;4.30;2.60;;;12.30;59.80;;;;;;4809601;29;20195;-85
2022/04/24 11:14:28;;;;;;;3.20;2.67;;;13.00;61.30;;;;;;4810124;29;20282;-85
2022/04/24 11:17:02;;;;;;;3.70;3.03;;;13.30;60.00;;;;;;4826250;29;20270;-85
2022/04/24 11:19:34;;;;;;;10.20;3.70;;;13.80;61.00;;;;;;4826127;29;20227;-87
2022/04/24 11:22:08;;;;;;;8.57;2.77;;;13.80;59.50;;;;;;4826116;29;20180;-86
2022/04/24 11:24:37;;;;;;;2.60;2.17;;;13.50;58.00;;;;;;4809759;29;20235;-86
2022/04/24 11:27:08;;;;;;;2.77;2.10;;;13.40;60.20;;;;;;4826610;29;20211;-84
2022/04/24 11:29:34;;;;;;;5.87;2.70;;;13.20;58.50;;;;;;4810216;29;20186;-85
2022/04/24 11:32:02;;;;;;;6.07;3.00;;;13.00;59.40;;;;;;4827045;29;20188;-86
2022/04/24 11:34:28;;;;;;;3.70;3.27;;;12.70;59.50;;;;;;4826057;29;20279;-86
2022/04/24 11:36:58;;;;;;;3.40;2.57;;;12.60;60.70;;;;;;4810233;29;20219;-85
2022/04/24 11:39:24;;;;;;;4.53;2.53;;;12.60;59.80;;;;;;4826194;29;20263;-86
2022/04/24 11:41:53;;;;;;;5.10;3.07;;;12.50;61.00;;;;;;4825400;29;20264;-86
2022/04/24 11:50:13;;;;;;;3.33;2.07;;;13.30;58.90;;;;;;4826383;29;20199;-86
2022/04/24 11:52:50;;;;;;;5.33;2.70;;;13.20;59.70;;;;;;4809214;29;20219;-86
2022/04/24 11:55:17;;;;;;;4.10;2.60;;;12.50;60.00;;;;;;4811185;29;20176;-85
2022/04/24 11:57:43;;;;;;;3.20;2.47;;;12.70;59.20;;;;;;4826857;29;20678;-86
2022/04/24 12:00:15;;;;;;;4.87;2.80;;;12.30;59.50;;;;;;4810348;29;20195;-87
2022/04/24 12:02:41;;;;;;;4.17;2.50;;;12.40;61.60;;;;;;4810593;29;20208;-86
2022/04/24 12:05:10;;;;;;;6.77;2.63;;;12.40;60.60;;;;;;4827312;29;20241;-86
2022/04/24 12:07:37;;;;;;;3.87;2.50;;;12.50;60.90;;;;;;4809889;29;20246;-84
2022/04/24 12:10:10;;;;;;;4.60;2.93;;;12.40;61.60;;;;;;4809188;29;20184;-87
2022/04/24 12:12:47;;;;;;;10.50;3.00;;;12.00;62.00;;;;;;4810153;29;20211;-86
2022/04/24 12:15:34;;;;;;;2.73;1.87;;;11.90;63.50;;;;;;4827971;29;20191;-85
2022/04/24 12:18:01;;;;;;;3.43;2.97;;;12.40;63.00;;;;;;4829303;29;20234;-86
2022/04/24 12:20:39;;;;;;;4.80;2.90;;;12.60;62.90;;;;;;4813821;29;20172;-85
2022/04/24 12:23:12;;;;;;;5.37;2.93;;;12.80;61.70;;;;;;4812294;29;20199;-90
2022/04/24 12:25:56;;;;;;;5.07;2.80;;;12.60;61.50;;;;;;4811320;29;20594;-89
2022/04/24 12:28:39;;;;;;;3.67;2.63;;;12.30;60.50;;;;;;4828008;29;20172;-88
2022/04/24 12:31:05;;;;;;;4.30;2.80;;;11.90;62.70;;;;;;4812054;29;20551;-87
2022/04/24 12:33:32;;;;;;;4.33;2.67;;;11.70;63.20;;;;;;4813814;29;20200;-86
2022/04/24 12:36:09;;;;;;;7.13;4.03;;;11.50;64.40;;;;;;4813237;29;20597;-87
2022/04/24 12:38:35;;;;;;;8.00;3.03;;;11.70;65.80;;;;;;4830937;29;20683;-86
2022/04/24 12:41:01;;;;;;;2.10;1.90;;;12.00;64.70;;;;;;4815495;29;20180;-85
2022/04/24 12:43:29;;;;;;;5.77;3.30;;;11.80;62.70;;;;;;4830691;29;20562;-86
2022/04/24 12:45:57;;;;;;;3.30;2.80;;;11.80;64.00;;;;;;4830368;29;20192;-86
2022/04/24 12:48:23;;;;;;;3.10;2.20;;;12.20;64.60;;;;;;4814177;29;20209;-86
2022/04/24 12:50:51;;;;;;;6.57;3.67;;;12.20;64.40;;;;;;4831417;29;20598;-86
2022/04/24 12:53:18;;;;;;;6.57;3.63;;;11.90;64.30;;;;;;4817384;29;20272;-86
2022/04/24 12:55:45;;;;;;;4.70;3.13;;;11.70;64.30;;;;;;4815961;29;20191;-86